createdAt,value
2019-04-26T00:01:42.148Z,2.40
2019-04-26T00:04:12.093Z,2.50
2019-04-26T00:06:41.222Z,2.30
2019-04-26T00:09:26.656Z,2.20
2019-04-26T00:12:20.395Z,2.50
2019-04-26T00:15:01.910Z,2.40
2019-04-26T00:17:52.631Z,2.50
2019-04-26T00:20:21.742Z,2.20
2019-04-26T00:22:51.088Z,2.60
2019-04-26T00:25:20.685Z,2.00
2019-04-26T00:27:49.957Z,2.00
2019-04-26T00:30:19.197Z,2.40
2019-04-26T00:32:48.202Z,2.50
2019-04-26T00:35:17.815Z,2.70
2019-04-26T00:37:46.886Z,2.50
2019-04-26T00:40:16.240Z,2.63
2019-04-26T00:42:45.369Z,2.90
2019-04-26T00:45:15.012Z,2.70
2019-04-26T00:47:44.252Z,2.90
2019-04-26T00:50:13.921Z,2.77
2019-04-26T00:52:44.100Z,3.07
2019-04-26T00:55:14.277Z,3.33
2019-04-26T00:57:43.407Z,2.93
2019-04-26T01:00:15.218Z,2.97
2019-04-26T01:02:48.842Z,3.10
2019-04-26T01:05:18.865Z,3.17
2019-04-26T01:07:49.992Z,3.23
2019-04-26T01:10:20.068Z,2.97
2019-04-26T01:12:49.131Z,3.00
2019-04-26T01:15:20.104Z,3.10
2019-04-26T01:17:48.933Z,2.70
2019-04-26T01:20:18.924Z,3.03
2019-04-26T01:22:50.266Z,2.93
2019-04-26T01:25:45.063Z,3.10
2019-04-26T01:28:19.621Z,2.60
2019-04-26T01:30:48.729Z,2.80
2019-04-26T01:33:18.721Z,2.53
2019-04-26T01:35:48.386Z,2.80
2019-04-26T01:38:17.457Z,2.50
2019-04-26T01:40:49.492Z,2.63
2019-04-26T01:43:28.462Z,2.80
2019-04-26T01:46:07.082Z,2.40
2019-04-26T01:48:44.796Z,2.83
2019-04-26T01:51:17.307Z,2.73
2019-04-26T01:53:46.378Z,2.60
2019-04-26T01:56:15.446Z,2.97
2019-04-26T01:58:44.586Z,3.43
2019-04-26T02:01:23.836Z,2.57
2019-04-26T02:03:52.863Z,2.60
2019-04-26T02:06:28.758Z,2.60
2019-04-26T02:08:52.764Z,2.60
2019-04-26T02:11:23.985Z,2.80
2019-04-26T02:13:53.931Z,3.23
2019-04-26T02:16:23.777Z,2.80
2019-04-26T02:18:53.193Z,2.83
2019-04-26T02:21:30.481Z,2.73
2019-04-26T02:24:07.066Z,2.60
2019-04-26T02:26:40.715Z,3.17
2019-04-26T02:29:15.347Z,2.77
2019-04-26T02:31:46.355Z,2.73
2019-04-26T02:34:15.819Z,2.60
2019-04-26T02:36:57.366Z,2.87
2019-04-26T02:39:20.046Z,2.40
2019-04-26T02:41:50.140Z,2.93
2019-04-26T02:44:21.939Z,2.80
2019-04-26T02:47:05.230Z,2.60
2019-04-26T02:49:41.744Z,2.80
2019-04-26T02:52:19.448Z,3.00
2019-04-26T02:55:00.573Z,2.80
2019-04-26T02:57:38.932Z,3.20
2019-04-26T03:00:09.545Z,3.27
2019-04-26T03:02:40.319Z,3.27
2019-04-26T03:05:09.827Z,3.33
2019-04-26T03:07:52.293Z,3.90
2019-04-26T03:10:26.134Z,4.03
2019-04-26T03:12:55.677Z,4.17
2019-04-26T03:16:03.241Z,4.70
2019-04-26T03:18:55.766Z,5.20
2019-04-26T03:21:34.533Z,5.20
2019-04-26T03:24:10.841Z,5.17
2019-04-26T03:26:48.242Z,5.30
2019-04-26T03:29:31.869Z,5.33
2019-04-26T03:32:19.060Z,5.50
2019-04-26T03:35:44.171Z,5.87
2019-04-26T03:38:34.479Z,5.30
2019-04-26T03:41:21.712Z,6.07
2019-04-26T03:44:05.001Z,5.50
2019-04-26T03:46:41.882Z,5.40
2019-04-26T03:49:33.899Z,5.50
2019-04-26T03:52:45.467Z,5.70
2019-04-26T03:56:06.847Z,5.00
2019-04-26T03:59:05.808Z,5.47
2019-04-26T04:01:41.425Z,5.23
2019-04-26T04:04:29.944Z,5.33
2019-04-26T04:07:04.813Z,5.70
2019-04-26T04:09:29.800Z,5.83
2019-04-26T04:12:12.348Z,5.67
2019-04-26T04:15:10.326Z,5.57
2019-04-26T04:17:50.241Z,5.60
2019-04-26T04:20:51.433Z,5.47
2019-04-26T04:23:48.767Z,5.67
2019-04-26T04:26:22.091Z,5.40
2019-04-26T04:29:42.616Z,5.57
2019-04-26T04:32:07.107Z,5.60
2019-04-26T04:34:42.103Z,6.00
2019-04-26T04:37:14.212Z,5.77
2019-04-26T04:40:24.208Z,6.00
2019-04-26T04:43:08.817Z,5.87
2019-04-26T04:46:12.700Z,5.73
2019-04-26T04:49:10.155Z,5.43
2019-04-26T04:52:03.637Z,5.70
2019-04-26T04:54:38.329Z,5.87
2019-04-26T04:57:13.405Z,5.53
2019-04-26T05:00:05.874Z,5.73
2019-04-26T05:02:53.466Z,6.00
2019-04-26T05:05:43.505Z,5.87
2019-04-26T05:08:38.699Z,5.40
2019-04-26T05:11:13.194Z,5.20
2019-04-26T05:13:50.830Z,5.67
2019-04-26T05:17:19.999Z,5.90
2019-04-26T05:20:31.027Z,6.03
2019-04-26T05:23:26.970Z,5.93
2019-04-26T05:26:51.458Z,5.77
2019-04-26T05:29:59.480Z,5.97
2019-04-26T05:33:03.921Z,6.27
2019-04-26T05:35:57.316Z,5.93
2019-04-26T05:39:07.091Z,6.43
2019-04-26T05:42:27.312Z,6.57
2019-04-26T05:45:42.616Z,6.10
2019-04-26T05:48:55.726Z,6.40
2019-04-26T05:52:10.450Z,6.80
2019-04-26T05:55:10.376Z,6.83
2019-04-26T05:58:16.205Z,6.47
2019-04-26T06:01:40.602Z,7.13
2019-04-26T06:04:47.530Z,7.90
2019-04-26T06:07:32.920Z,7.30
2019-04-26T06:10:27.389Z,7.67
2019-04-26T06:13:06.330Z,7.97
2019-04-26T06:15:56.662Z,7.97
2019-04-26T06:18:37.697Z,7.57
2019-04-26T06:21:23.547Z,7.70
2019-04-26T06:24:24.004Z,8.70
2019-04-26T06:27:41.493Z,8.43
2019-04-26T06:30:23.235Z,7.40
2019-04-26T06:33:28.395Z,8.20
2019-04-26T06:35:57.676Z,8.23
2019-04-26T06:39:02.305Z,8.47
2019-04-26T06:42:14.751Z,7.83
2019-04-26T06:45:50.481Z,8.83
2019-04-26T06:48:39.663Z,8.40
2019-04-26T06:51:24.060Z,8.37
2019-04-26T06:54:01.235Z,7.53
2019-04-26T06:57:13.710Z,7.90
2019-04-26T06:59:51.878Z,7.50
2019-04-26T07:02:25.961Z,8.10
2019-04-26T07:05:07.899Z,7.40
2019-04-26T07:08:03.414Z,8.90
2019-04-26T07:11:30.425Z,8.43
2019-04-26T07:14:48.033Z,8.37
2019-04-26T07:17:19.110Z,8.70
2019-04-26T07:20:16.263Z,8.50
2019-04-26T07:23:31.130Z,8.13
2019-04-26T07:26:41.766Z,9.00
2019-04-26T07:30:05.177Z,7.83
2019-04-26T07:33:08.476Z,8.27
2019-04-26T07:35:47.767Z,7.83
2019-04-26T07:39:29.030Z,9.03
2019-04-26T07:42:46.516Z,8.17
2019-04-26T07:45:54.170Z,7.83
2019-04-26T07:49:19.351Z,22.30
2019-04-26T07:52:33.856Z,7.73
2019-04-26T07:55:24.441Z,7.43
2019-04-26T07:58:30.390Z,7.93
2019-04-26T08:01:12.105Z,8.03
2019-04-26T08:03:51.930Z,7.60
2019-04-26T08:06:55.941Z,7.20
2019-04-26T08:09:27.550Z,7.17
2019-04-26T08:11:59.347Z,7.57
2019-04-26T08:14:44.072Z,6.97
2019-04-26T08:17:32.183Z,7.10
2019-04-26T08:20:14.044Z,7.27
2019-04-26T08:22:43.703Z,7.27
2019-04-26T08:25:12.800Z,7.50
2019-04-26T08:27:43.074Z,7.57
2019-04-26T08:30:17.069Z,7.40
2019-04-26T08:32:50.555Z,7.83
2019-04-26T08:35:30.413Z,7.60
2019-04-26T08:38:07.919Z,6.60
2019-04-26T08:40:35.833Z,7.80
2019-04-26T08:43:27.303Z,7.37
2019-04-26T08:46:20.264Z,7.50
2019-04-26T08:48:58.156Z,7.67
2019-04-26T08:51:26.255Z,7.27
2019-04-26T08:53:55.338Z,8.37
2019-04-26T08:56:28.101Z,7.17
2019-04-26T08:59:00.764Z,7.10
2019-04-26T09:01:41.969Z,7.17
2019-04-26T09:04:35.243Z,7.30
2019-04-26T09:07:07.411Z,7.57
2019-04-26T09:09:37.360Z,8.07
2019-04-26T09:12:08.280Z,8.00
2019-04-26T09:14:38.248Z,7.70
2019-04-26T09:17:08.456Z,7.93
2019-04-26T09:19:37.509Z,7.77
2019-04-26T09:22:28.325Z,7.57
2019-04-26T09:25:30.324Z,7.80
2019-04-26T09:28:11.449Z,8.60
2019-04-26T09:30:59.478Z,7.87
2019-04-26T09:34:06.436Z,7.73
2019-04-26T09:36:33.505Z,8.03
2019-04-26T09:39:03.976Z,7.70
2019-04-26T09:41:34.476Z,7.27
2019-04-26T09:44:25.695Z,6.57
2019-04-26T09:47:12.931Z,8.03
2019-04-26T09:49:52.311Z,7.43
2019-04-26T09:52:25.080Z,7.03
2019-04-26T09:54:54.352Z,7.40
2019-04-26T09:57:24.084Z,7.23
2019-04-26T09:59:53.326Z,7.80
2019-04-26T10:02:23.503Z,7.47
2019-04-26T10:04:52.554Z,7.50
2019-04-26T10:07:21.675Z,7.20
2019-04-26T10:09:51.642Z,7.70
2019-04-26T10:12:30.737Z,7.73
2019-04-26T10:15:14.169Z,7.73
2019-04-26T10:17:46.434Z,6.90
2019-04-26T10:20:14.169Z,7.10
2019-04-26T10:22:44.744Z,7.13
2019-04-26T10:25:16.922Z,7.73
2019-04-26T10:27:45.338Z,8.00
2019-04-26T10:30:16.740Z,8.23
2019-04-26T10:32:46.915Z,7.13
2019-04-26T10:35:17.495Z,7.43
2019-04-26T10:37:48.183Z,6.83
2019-04-26T10:40:17.589Z,6.90
2019-04-26T10:42:47.728Z,6.10
2019-04-26T10:45:16.849Z,6.63
2019-04-26T10:47:45.897Z,6.97
2019-04-26T10:50:14.971Z,6.40
2019-04-26T10:52:53.099Z,6.60
2019-04-26T10:55:36.844Z,5.97
2019-04-26T10:58:36.322Z,5.63
2019-04-26T11:01:06.258Z,5.37
2019-04-26T11:03:35.314Z,4.93
2019-04-26T11:06:04.364Z,6.00
2019-04-26T11:08:33.414Z,5.00
2019-04-26T11:11:02.400Z,5.60
2019-04-26T11:13:31.432Z,5.17
2019-04-26T11:16:02.379Z,5.37
2019-04-26T11:18:31.382Z,4.97
2019-04-26T11:21:00.418Z,5.20
2019-04-26T11:23:29.434Z,5.83
2019-04-26T11:26:01.612Z,6.20
2019-04-26T11:28:29.318Z,5.70
2019-04-26T11:30:58.430Z,5.83
2019-04-26T11:33:27.508Z,4.80
2019-04-26T11:35:56.563Z,5.40
2019-04-26T11:38:26.968Z,5.10
2019-04-26T11:41:05.904Z,4.83
2019-04-26T11:43:27.228Z,4.50
2019-04-26T11:46:04.076Z,4.53
2019-04-26T11:48:29.214Z,4.50
2019-04-26T11:50:58.100Z,4.50
2019-04-26T11:53:27.174Z,4.50
2019-04-26T11:55:56.235Z,4.53
2019-04-26T11:58:25.233Z,4.50
2019-04-26T12:00:58.701Z,5.00
2019-04-26T12:03:27.782Z,4.37
2019-04-26T12:06:21.287Z,4.17
2019-04-26T12:08:56.111Z,3.70
2019-04-26T12:11:31.344Z,4.30
2019-04-26T12:13:59.445Z,4.17
2019-04-26T12:16:26.778Z,4.10
2019-04-26T12:18:57.069Z,4.23
2019-04-26T12:21:30.542Z,4.67
2019-04-26T12:23:58.004Z,4.60
2019-04-26T12:26:27.022Z,4.50
2019-04-26T12:28:56.153Z,3.90
2019-04-26T12:31:25.211Z,4.30
2019-04-26T12:33:54.242Z,4.10
2019-04-26T12:36:23.278Z,3.97
2019-04-26T12:38:52.334Z,3.57
2019-04-26T12:41:39.230Z,3.83
2019-04-26T12:43:54.531Z,3.60
2019-04-26T12:46:32.247Z,4.00
2019-04-26T12:49:01.328Z,3.37
2019-04-26T12:51:30.462Z,3.50
2019-04-26T12:53:59.500Z,2.80
2019-04-26T12:56:31.247Z,2.70
2019-04-26T12:58:59.383Z,2.70
2019-04-26T13:01:28.444Z,2.67
2019-04-26T13:04:07.328Z,2.27
2019-04-26T13:06:40.068Z,2.67
2019-04-26T13:09:14.317Z,2.10
2019-04-26T13:12:03.372Z,2.10
2019-04-26T13:14:54.204Z,1.90
2019-04-26T13:17:27.437Z,2.00
2019-04-26T13:19:56.522Z,2.07
2019-04-26T13:22:25.514Z,1.70
2019-04-26T13:24:54.564Z,1.60
2019-04-26T13:27:23.604Z,1.67
2019-04-26T13:30:01.860Z,1.80
2019-04-26T13:32:23.501Z,1.70
2019-04-26T13:34:52.666Z,1.50
2019-04-26T13:37:21.702Z,1.80
2019-04-26T13:39:51.248Z,1.63
2019-04-26T13:42:21.577Z,2.07
2019-04-26T13:45:09.613Z,1.60
2019-04-26T13:47:57.687Z,1.60
2019-04-26T13:50:30.808Z,1.60
2019-04-26T13:52:59.952Z,1.90
2019-04-26T13:55:30.447Z,1.87
2019-04-26T13:57:59.518Z,1.90
2019-04-26T14:00:31.271Z,1.60
2019-04-26T14:03:00.283Z,2.00
2019-04-26T14:05:29.359Z,1.67
2019-04-26T14:07:58.386Z,1.80
2019-04-26T14:10:27.484Z,1.73
2019-04-26T14:12:56.626Z,1.77
2019-04-26T14:15:25.671Z,1.73
2019-04-26T14:17:54.697Z,1.93
2019-04-26T14:20:24.491Z,1.90
2019-04-26T14:23:16.371Z,1.90
2019-04-26T14:26:01.154Z,2.37
2019-04-26T14:28:29.707Z,1.90
2019-04-26T14:30:59.212Z,2.53
2019-04-26T14:33:30.846Z,2.70
2019-04-26T14:35:59.097Z,2.30
2019-04-26T14:38:35.631Z,2.30
2019-04-26T14:41:04.201Z,2.00
2019-04-26T14:43:40.483Z,1.80
2019-04-26T14:46:01.123Z,2.10
2019-04-26T14:48:36.254Z,2.10
2019-04-26T14:51:07.841Z,1.70
2019-04-26T14:53:36.326Z,2.20
2019-04-26T14:56:05.080Z,1.90
2019-04-26T14:58:34.164Z,3.17
2019-04-26T15:01:04.880Z,6.40
2019-04-26T15:03:38.747Z,3.63
2019-04-26T15:06:20.516Z,7.77
2019-04-26T15:08:50.964Z,22.60
2019-04-26T15:11:20.058Z,6.57
2019-04-26T15:13:49.169Z,2.53
2019-04-26T15:16:22.167Z,10.80
2019-04-26T15:18:50.444Z,9.20
2019-04-26T15:21:19.635Z,3.50
2019-04-26T15:26:29.847Z,1.80
2019-04-26T15:28:56.489Z,1.70
2019-04-26T15:31:25.558Z,3.70
2019-04-26T15:33:54.636Z,3.57
2019-04-26T15:36:23.673Z,2.00
2019-04-26T15:38:52.967Z,1.60
2019-04-26T15:41:51.177Z,3.37
2019-04-26T15:44:34.634Z,1.27
2019-04-26T15:47:13.126Z,1.80
2019-04-26T15:49:52.888Z,1.60
2019-04-26T15:52:22.069Z,1.30
2019-04-26T15:54:52.988Z,1.43
2019-04-26T15:57:24.457Z,1.10
2019-04-26T15:59:54.301Z,1.60
2019-04-26T16:02:26.290Z,1.23
2019-04-26T16:04:55.522Z,1.20
2019-04-26T16:07:28.817Z,1.00
2019-04-26T16:09:57.406Z,1.43
2019-04-26T16:12:27.398Z,1.00
2019-04-26T16:14:56.558Z,1.20
2019-04-26T16:17:25.970Z,1.27
2019-04-26T16:19:56.131Z,1.23
2019-04-26T16:22:29.967Z,1.20
2019-04-26T16:24:58.278Z,1.37
2019-04-26T16:27:30.940Z,1.57
2019-04-26T16:30:09.850Z,1.23
2019-04-26T16:32:52.662Z,1.40
2019-04-26T16:35:25.322Z,1.40
2019-04-26T16:37:52.108Z,1.60
2019-04-26T16:40:21.236Z,1.30
2019-04-26T16:42:56.594Z,1.13
2019-04-26T16:45:22.694Z,1.13
2019-04-26T16:47:53.118Z,1.77
2019-04-26T16:50:31.178Z,3.60
2019-04-26T16:52:53.161Z,2.97
2019-04-26T16:55:24.673Z,1.90
2019-04-26T16:57:55.618Z,1.57
2019-04-26T17:00:47.112Z,1.57
2019-04-26T17:03:02.753Z,1.40
2019-04-26T17:05:46.925Z,1.40
2019-04-26T17:07:58.976Z,0.97
2019-04-26T17:10:29.136Z,1.30
2019-04-26T17:12:58.162Z,1.63
2019-04-26T17:15:27.369Z,1.17
2019-04-26T17:17:56.613Z,1.00
2019-04-26T17:20:26.468Z,1.37
2019-04-26T17:23:08.186Z,0.97
2019-04-26T17:25:55.132Z,1.17
2019-04-26T17:28:26.601Z,1.10
2019-04-26T17:30:55.907Z,0.90
2019-04-26T17:33:28.312Z,1.10
2019-04-26T17:35:55.812Z,1.17
2019-04-26T17:38:24.854Z,1.20
2019-04-26T17:40:53.948Z,1.30
2019-04-26T17:43:23.049Z,1.00
2019-04-26T17:45:54.518Z,1.40
2019-04-26T17:48:23.631Z,1.60
2019-04-26T17:50:55.050Z,1.30
2019-04-26T17:53:30.708Z,3.83
2019-04-26T17:55:55.204Z,1.10
2019-04-26T17:58:31.018Z,1.00
2019-04-26T18:01:01.073Z,1.93
2019-04-26T18:03:27.843Z,1.03
2019-04-26T18:05:58.386Z,1.00
2019-04-26T18:08:40.804Z,1.20
2019-04-26T18:11:00.852Z,1.10
2019-04-26T18:13:31.912Z,1.17
2019-04-26T18:16:00.785Z,1.50
2019-04-26T18:18:54.056Z,1.10
2019-04-26T18:21:38.323Z,1.07
2019-04-26T18:24:07.527Z,1.10
2019-04-26T18:26:36.643Z,1.10
2019-04-26T18:29:05.733Z,1.10
2019-04-26T18:31:34.856Z,1.10
2019-04-26T18:34:04.235Z,3.37
2019-04-26T18:36:33.420Z,2.80
2019-04-26T18:39:03.854Z,1.57
2019-04-26T18:41:33.926Z,1.27
2019-04-26T18:44:03.152Z,1.30
2019-04-26T18:46:47.148Z,1.07
2019-04-26T18:49:18.928Z,1.10
2019-04-26T18:51:48.189Z,1.47
2019-04-26T18:54:23.433Z,1.80
2019-04-26T18:56:56.239Z,1.50
2019-04-26T18:59:27.700Z,1.20
2019-04-26T19:01:56.299Z,0.87
2019-04-26T19:04:25.335Z,1.13
2019-04-26T19:06:54.425Z,1.20
2019-04-26T19:09:25.451Z,4.70
2019-04-26T19:11:56.205Z,1.47
2019-04-26T19:15:04.189Z,1.30
2019-04-26T19:17:43.599Z,1.13
2019-04-26T19:20:42.354Z,1.30
2019-04-26T19:23:12.200Z,1.20
2019-04-26T19:25:41.494Z,1.10
2019-04-26T19:28:12.156Z,1.30
2019-04-26T19:30:48.824Z,1.47
2019-04-26T19:33:16.858Z,1.27
2019-04-26T19:35:47.335Z,1.40
2019-04-26T19:38:16.327Z,1.50
2019-04-26T19:40:47.874Z,1.30
2019-04-26T19:43:28.336Z,1.27
2019-04-26T19:46:09.977Z,1.60
2019-04-26T19:49:16.849Z,1.20
2019-04-26T19:52:19.827Z,1.00
2019-04-26T19:55:01.924Z,1.17
2019-04-26T19:57:41.062Z,1.47
2019-04-26T20:00:10.887Z,1.17
2019-04-26T20:02:42.050Z,1.20
2019-04-26T20:05:11.929Z,1.40
2019-04-26T20:07:41.680Z,1.40
2019-04-26T20:10:12.771Z,1.87
2019-04-26T20:12:41.730Z,1.53
2019-04-26T20:15:24.908Z,1.50
2019-04-26T20:17:41.711Z,1.80
2019-04-26T20:20:20.763Z,1.30
2019-04-26T20:22:42.907Z,1.57
2019-04-26T20:25:12.533Z,1.57
2019-04-26T20:27:41.589Z,1.67
2019-04-26T20:30:18.238Z,1.50
2019-04-26T20:32:45.875Z,1.60
2019-04-26T20:35:26.969Z,1.33
2019-04-26T20:37:52.326Z,1.50
2019-04-26T20:40:25.496Z,1.43
2019-04-26T20:43:01.743Z,1.40
2019-04-26T20:45:38.822Z,1.60
2019-04-26T20:47:59.356Z,1.23
2019-04-26T20:50:32.684Z,1.80
2019-04-26T20:53:02.140Z,1.57
2019-04-26T20:55:34.512Z,1.50
2019-04-26T20:58:06.991Z,1.37
2019-04-26T21:00:36.443Z,1.50
2019-04-26T21:03:05.934Z,1.60
2019-04-26T21:05:45.820Z,1.50
2019-04-26T21:08:06.071Z,1.40
2019-04-26T21:10:36.032Z,1.60
2019-04-26T21:13:06.655Z,1.50
2019-04-26T21:15:36.167Z,1.63
2019-04-26T21:18:05.739Z,1.80
2019-04-26T21:20:36.427Z,1.80
2019-04-26T21:23:07.198Z,2.00
2019-04-26T21:25:46.606Z,1.57
2019-04-26T21:28:29.821Z,1.73
2019-04-26T21:31:30.011Z,1.50
2019-04-26T21:34:12.547Z,1.50
2019-04-26T21:36:59.907Z,1.60
2019-04-26T21:39:49.097Z,1.47
2019-04-26T21:42:20.957Z,1.90
2019-04-26T21:44:52.446Z,1.50
2019-04-26T21:47:20.333Z,1.30
2019-04-26T21:49:52.753Z,2.00
2019-04-26T21:52:21.338Z,1.67
2019-04-26T21:54:53.117Z,1.70
2019-04-26T21:57:27.643Z,1.80
2019-04-26T21:59:54.436Z,1.80
2019-04-26T22:02:25.515Z,1.63
2019-04-26T22:04:55.222Z,1.60
2019-04-26T22:07:24.379Z,1.77
2019-04-26T22:10:10.682Z,2.00
2019-04-26T22:12:39.975Z,1.90
2019-04-26T22:15:29.501Z,1.90
2019-04-26T22:18:00.678Z,1.80
2019-04-26T22:20:54.833Z,1.80
2019-04-26T22:23:39.538Z,1.80
2019-04-26T22:26:09.495Z,1.67
2019-04-26T22:28:38.566Z,1.47
2019-04-26T22:31:08.580Z,1.90
2019-04-26T22:33:38.330Z,1.60
2019-04-26T22:36:07.569Z,1.77
2019-04-26T22:38:36.659Z,1.90
2019-04-26T22:41:06.384Z,1.97
2019-04-26T22:43:58.860Z,1.90
2019-04-26T22:46:48.798Z,2.03
2019-04-26T22:49:16.078Z,2.20
2019-04-26T22:51:45.246Z,2.60
2019-04-26T22:54:14.345Z,2.43
2019-04-26T22:56:45.912Z,2.50
2019-04-26T22:59:14.406Z,2.57
2019-04-26T23:01:47.130Z,2.60
2019-04-26T23:04:23.653Z,2.33
2019-04-26T23:06:48.311Z,2.13
2019-04-26T23:09:19.218Z,2.20
2019-04-26T23:11:55.146Z,2.30
2019-04-26T23:14:55.193Z,2.63
2019-04-26T23:17:43.985Z,2.47
2019-04-26T23:20:34.403Z,2.50
2019-04-26T23:23:05.206Z,2.47
2019-04-26T23:25:34.755Z,2.43
2019-04-26T23:28:04.013Z,2.20
2019-04-26T23:30:33.174Z,2.40
2019-04-26T23:33:02.640Z,2.27
2019-04-26T23:35:37.529Z,2.50
2019-04-26T23:38:05.266Z,2.70
2019-04-26T23:40:34.695Z,2.43
2019-04-26T23:43:03.944Z,2.40
2019-04-26T23:45:34.423Z,2.50
2019-04-26T23:48:07.746Z,2.23
2019-04-26T23:50:35.048Z,2.23
2019-04-26T23:53:04.149Z,2.70
2019-04-26T23:55:33.799Z,2.60
2019-04-26T23:58:04.905Z,2.23
